Time,TemperatureF,DewpointF,PressureIn,WindDirection,WindDirectionDegrees,WindSpeedMPH,WindSpeedGustMPH,Humidity,HourlyPrecipIn,Conditions,Clouds,dailyrainin,SoftwareType,DateUTC
2013-06-28 00:00:00,72.6,68.5,29.59,West,265,0.0,16.0,87,0.00,,,0.10,Wunderground v.1.15,2013-06-28 04:00:00,
2013-06-28 00:05:00,72.5,69.1,29.59,West,266,0.0,16.0,89,0.00,,,0.00,Wunderground v.1.15,2013-06-28 04:05:00,
2013-06-28 00:10:00,72.2,68.8,29.59,West,265,0.0,16.0,89,0.00,,,0.00,Wunderground v.1.15,2013-06-28 04:10:00,
2013-06-28 00:15:00,71.8,68.1,29.59,West,265,1.0,16.0,88,0.00,,,0.00,Wunderground v.1.15,2013-06-28 04:15:00,
2013-06-28 00:25:00,71.7,68.0,29.59,West,265,1.0,16.0,88,0.00,,,0.00,Wunderground v.1.15,2013-06-28 04:25:00,
2013-06-28 00:30:00,71.7,68.3,29.58,West,265,0.0,16.0,89,0.00,,,0.00,Wunderground v.1.15,2013-06-28 04:30:00,
2013-06-28 00:35:00,71.3,68.2,29.58,West,265,0.0,16.0,90,0.00,,,0.00,Wunderground v.1.15,2013-06-28 04:35:00,
2013-06-28 00:40:00,71.0,67.9,29.58,West,265,0.0,16.0,90,0.00,,,0.00,Wunderground v.1.15,2013-06-28 04:40:00,
2013-06-28 00:45:00,70.7,67.9,29.58,West,265,0.0,16.0,91,0.00,,,0.00,Wunderground v.1.15,2013-06-28 04:45:00,
2013-06-28 00:55:00,70.2,67.8,29.58,West,265,0.0,16.0,92,0.00,,,0.00,Wunderground v.1.15,2013-06-28 04:55:00,
2013-06-28 01:00:00,69.9,67.5,29.58,West,265,0.0,16.0,92,0.00,,,0.00,Wunderground v.1.15,2013-06-28 05:00:00,
2013-06-28 01:10:00,69.4,67.3,29.59,West,265,0.0,16.0,93,0.00,,,0.00,Wunderground v.1.15,2013-06-28 05:10:00,
2013-06-28 01:15:00,69.1,67.0,29.58,West,265,0.0,16.0,93,0.00,,,0.00,Wunderground v.1.15,2013-06-28 05:15:00,
2013-06-28 01:20:00,69.0,67.2,29.58,West,265,0.0,16.0,94,0.00,,,0.00,Wunderground v.1.15,2013-06-28 05:20:00,
2013-06-28 01:30:00,68.6,66.8,29.57,West,265,0.0,16.0,94,0.00,,,0.00,Wunderground v.1.15,2013-06-28 05:30:00,
2013-06-28 01:35:00,68.4,66.9,29.57,West,265,0.0,16.0,95,0.00,,,0.00,Wunderground v.1.15,2013-06-28 05:35:00,
2013-06-28 01:40:00,68.4,66.9,29.57,West,265,0.0,16.0,95,0.00,,,0.00,Wunderground v.1.15,2013-06-28 05:40:00,
2013-06-28 01:45:00,68.3,66.8,29.57,West,265,0.0,16.0,95,0.00,,,0.00,Wunderground v.1.15,2013-06-28 05:45:00,
2013-06-28 01:50:00,68.4,66.9,29.57,West,265,0.0,16.0,95,0.00,,,0.00,Wunderground v.1.15,2013-06-28 05:50:00,
2013-06-28 02:00:00,68.6,66.8,29.56,West,265,0.0,16.0,94,0.00,,,0.00,Wunderground v.1.15,2013-06-28 06:00:00,
2013-06-28 02:10:00,69.1,67.3,29.56,West,265,0.0,16.0,94,0.00,,,0.00,Wunderground v.1.15,2013-06-28 06:10:00,
2013-06-28 02:15:00,69.2,67.1,29.56,West,265,0.0,16.0,93,0.00,,,0.00,Wunderground v.1.15,2013-06-28 06:15:00,
2013-06-28 02:20:00,69.3,67.2,29.56,West,265,0.0,16.0,93,0.00,,,0.00,Wunderground v.1.15,2013-06-28 06:20:00,
2013-06-28 02:25:00,69.3,67.2,29.56,West,265,0.0,16.0,93,0.00,,,0.00,Wunderground v.1.15,2013-06-28 06:25:00,
2013-06-28 02:30:00,69.3,66.9,29.56,West,265,0.0,16.0,92,0.00,,,0.00,Wunderground v.1.15,2013-06-28 06:30:00,
2013-06-28 02:40:00,69.7,67.0,29.56,West,265,0.0,16.0,91,0.00,,,0.00,Wunderground v.1.15,2013-06-28 06:40:00,
2013-06-28 02:45:00,69.8,67.1,29.57,West,265,0.0,16.0,91,0.00,,,0.00,Wunderground v.1.15,2013-06-28 06:45:00,
2013-06-28 02:50:00,69.9,67.2,29.57,West,263,1.0,1.0,91,0.00,,,0.00,Wunderground v.1.15,2013-06-28 06:50:00,
2013-06-28 02:55:00,69.9,67.2,29.56,West,263,1.0,16.0,91,0.00,,,0.00,Wunderground v.1.15,2013-06-28 06:55:00,
2013-06-28 03:00:00,69.8,67.1,29.56,West,263,0.0,16.0,91,0.00,,,0.00,Wunderground v.1.15,2013-06-28 07:00:00,
2013-06-28 03:10:00,69.8,67.1,29.56,West,263,0.0,16.0,91,0.00,,,0.00,Wunderground v.1.15,2013-06-28 07:10:00,
2013-06-28 03:15:00,69.7,67.0,29.56,West,263,0.0,16.0,91,0.00,,,0.00,Wunderground v.1.15,2013-06-28 07:15:00,
2013-06-28 03:25:00,69.4,67.0,29.56,West,263,0.0,16.0,92,0.00,,,0.00,Wunderground v.1.15,2013-06-28 07:25:00,
2013-06-28 03:30:00,69.1,67.0,29.56,West,263,0.0,16.0,93,0.00,,,0.00,Wunderground v.1.15,2013-06-28 07:30:00,
2013-06-28 03:35:00,68.8,66.7,29.56,West,263,0.0,16.0,93,0.00,,,0.00,Wunderground v.1.15,2013-06-28 07:35:00,
2013-06-28 03:45:00,68.1,66.3,29.56,West,263,0.0,16.0,94,0.00,,,0.00,Wunderground v.1.15,2013-06-28 07:45:00,
2013-06-28 03:50:00,67.9,66.1,29.56,West,263,0.0,16.0,94,0.00,,,0.00,Wunderground v.1.15,2013-06-28 07:50:00,
2013-06-28 03:55:00,67.6,66.1,29.56,West,263,0.0,16.0,95,0.00,,,0.00,Wunderground v.1.15,2013-06-28 07:55:00,
2013-06-28 04:00:00,67.4,65.9,29.56,West,263,0.0,16.0,95,0.00,,,0.00,Wunderground v.1.15,2013-06-28 08:00:00,
2013-06-28 04:05:00,67.2,65.7,29.57,West,263,0.0,16.0,95,0.00,,,0.00,Wunderground v.1.15,2013-06-28 08:05:00,
2013-06-28 04:10:00,67.1,65.9,29.57,West,263,0.0,16.0,96,0.00,,,0.00,Wunderground v.1.15,2013-06-28 08:10:00,
2013-06-28 04:15:00,67.1,65.9,29.56,West,263,0.0,16.0,96,0.00,,,0.00,Wunderground v.1.15,2013-06-28 08:15:00,
2013-06-28 04:20:00,66.9,65.7,29.56,West,263,0.0,16.0,96,0.00,,,0.00,Wunderground v.1.15,2013-06-28 08:20:00,
2013-06-28 04:30:00,66.7,65.5,29.56,West,263,0.0,16.0,96,0.00,,,0.00,Wunderground v.1.15,2013-06-28 08:30:00,
2013-06-28 04:35:00,66.6,65.7,29.56,West,263,0.0,16.0,97,0.00,,,0.00,Wunderground v.1.15,2013-06-28 08:35:00,
2013-06-28 04:40:00,66.5,65.6,29.56,West,263,0.0,16.0,97,0.00,,,0.00,Wunderground v.1.15,2013-06-28 08:40:00,
2013-06-28 04:45:00,66.3,65.4,29.56,West,263,0.0,16.0,97,0.00,,,0.00,Wunderground v.1.15,2013-06-28 08:45:00,
2013-06-28 04:55:00,66.1,65.2,29.56,West,263,0.0,16.0,97,0.00,,,0.00,Wunderground v.1.15,2013-06-28 08:55:00,
2013-06-28 05:00:00,66.0,65.1,29.57,West,263,0.0,16.0,97,0.00,,,0.00,Wunderground v.1.15,2013-06-28 09:00:00,
2013-06-28 05:05:00,66.0,65.1,29.57,West,263,0.0,16.0,97,0.00,,,0.00,Wunderground v.1.15,2013-06-28 09:05:00,
2013-06-28 05:10:00,65.9,65.0,29.57,West,263,0.0,16.0,97,0.00,,,0.00,Wunderground v.1.15,2013-06-28 09:10:00,
2013-06-28 05:15:00,65.8,65.2,29.57,West,263,0.0,16.0,98,0.00,,,0.00,Wunderground v.1.15,2013-06-28 09:15:00,
2013-06-28 05:25:00,65.8,65.2,29.57,West,263,0.0,16.0,98,0.00,,,0.00,Wunderground v.1.15,2013-06-28 09:25:00,
2013-06-28 05:30:00,65.7,65.1,29.58,West,263,0.0,16.0,98,0.00,,,0.00,Wunderground v.1.15,2013-06-28 09:30:00,
2013-06-28 05:39:00,65.6,65.0,29.58,West,263,0.0,16.0,98,0.00,,,0.00,Wunderground v.1.15,2013-06-28 09:39:00,
2013-06-28 05:45:00,65.6,65.0,29.58,West,263,0.0,16.0,98,0.00,,,0.00,Wunderground v.1.15,2013-06-28 09:45:00,
2013-06-28 05:50:00,65.5,64.9,29.58,West,263,0.0,16.0,98,0.00,,,0.00,Wunderground v.1.15,2013-06-28 09:50:00,
2013-06-28 06:00:00,65.4,64.8,29.58,West,263,0.0,16.0,98,0.00,,,0.00,Wunderground v.1.15,2013-06-28 10:00:00,
2013-06-28 06:05:00,65.4,64.8,29.57,West,263,0.0,16.0,98,0.00,,,0.00,Wunderground v.1.15,2013-06-28 10:05:00,
2013-06-28 06:10:00,65.5,64.9,29.57,West,263,0.0,16.0,98,0.00,,,0.00,Wunderground v.1.15,2013-06-28 10:10:00,
2013-06-28 06:15:00,65.4,64.8,29.57,West,263,0.0,16.0,98,0.00,,,0.00,Wunderground v.1.15,2013-06-28 10:15:00,
2013-06-28 06:20:00,65.3,64.7,29.57,West,263,0.0,16.0,98,0.00,,,0.00,Wunderground v.1.15,2013-06-28 10:20:00,
2013-06-28 06:25:00,65.4,64.8,29.57,West,263,0.0,16.0,98,0.00,,,0.00,Wunderground v.1.15,2013-06-28 10:25:00,
2013-06-28 06:35:00,65.6,65.3,29.57,West,263,0.0,16.0,99,0.00,,,0.00,Wunderground v.1.15,2013-06-28 10:35:00,
2013-06-28 06:40:00,65.8,65.2,29.57,West,263,0.0,16.0,98,0.00,,,0.00,Wunderground v.1.15,2013-06-28 10:40:00,
2013-06-28 06:45:00,66.0,65.7,29.57,West,263,0.0,16.0,99,0.00,,,0.00,Wunderground v.1.15,2013-06-28 10:45:00,
2013-06-28 06:50:00,66.3,66.0,29.57,West,263,0.0,16.0,99,0.00,,,0.00,Wunderground v.1.15,2013-06-28 10:50:00,
2013-06-28 06:55:00,66.7,66.4,29.57,West,263,0.0,16.0,99,0.00,,,0.00,Wunderground v.1.15,2013-06-28 10:55:00,
2013-06-28 07:05:00,67.5,67.2,29.57,West,263,0.0,16.0,99,0.00,,,0.00,Wunderground v.1.15,2013-06-28 11:05:00,
2013-06-28 07:15:00,68.2,67.9,29.57,West,263,0.0,16.0,99,0.00,,,0.00,Wunderground v.1.15,2013-06-28 11:15:00,
2013-06-28 07:20:00,68.4,68.1,29.57,West,263,0.0,16.0,99,0.00,,,0.00,Wunderground v.1.15,2013-06-28 11:20:00,
2013-06-28 07:25:00,68.5,68.2,29.57,West,263,0.0,16.0,99,0.00,,,0.00,Wunderground v.1.15,2013-06-28 11:25:00,
2013-06-28 07:30:00,68.7,68.4,29.57,West,263,0.0,16.0,99,0.00,,,0.00,Wunderground v.1.15,2013-06-28 11:30:00,
2013-06-28 07:40:00,69.3,69.0,29.57,West,263,0.0,16.0,99,0.00,,,0.00,Wunderground v.1.15,2013-06-28 11:40:00,
2013-06-28 07:45:00,69.6,69.3,29.56,West,263,0.0,16.0,99,0.00,,,0.00,Wunderground v.1.15,2013-06-28 11:45:00,
2013-06-28 07:50:00,69.8,69.5,29.56,West,263,0.0,16.0,99,0.00,,,0.00,Wunderground v.1.15,2013-06-28 11:50:00,
2013-06-28 07:55:00,69.8,69.2,29.56,West,263,0.0,16.0,98,0.00,,,0.00,Wunderground v.1.15,2013-06-28 11:55:00,
2013-06-28 08:00:00,70.2,69.6,29.57,West,263,0.0,16.0,98,0.00,,,0.00,Wunderground v.1.15,2013-06-28 12:00:00,
2013-06-28 08:05:00,70.9,70.6,29.57,West,263,0.0,16.0,99,0.00,,,0.00,Wunderground v.1.15,2013-06-28 12:05:00,
2013-06-28 08:15:00,72.2,70.7,29.57,West,263,0.0,16.0,95,0.00,,,0.00,Wunderground v.1.15,2013-06-28 12:15:00,
2013-06-28 08:24:00,73.4,71.3,29.57,West,263,0.0,16.0,93,0.00,,,0.00,Wunderground v.1.15,2013-06-28 12:24:00,
2013-06-28 08:29:00,74.3,71.5,29.57,West,263,0.0,16.0,91,0.00,,,0.00,Wunderground v.1.15,2013-06-28 12:29:00,
2013-06-28 08:35:00,75.4,71.3,29.57,West,263,0.0,16.0,87,0.00,,,0.00,Wunderground v.1.15,2013-06-28 12:35:00,
2013-06-28 08:40:00,76.2,71.7,29.56,West,263,0.0,16.0,86,0.00,,,0.00,Wunderground v.1.15,2013-06-28 12:40:00,
2013-06-28 08:50:00,76.7,71.8,29.57,West,263,0.0,16.0,85,0.00,,,0.00,Wunderground v.1.15,2013-06-28 12:50:00,
2013-06-28 08:55:00,76.7,71.8,29.57,West,263,0.0,16.0,85,0.00,,,0.00,Wunderground v.1.15,2013-06-28 12:55:00,
2013-06-28 09:00:00,76.6,71.4,29.57,West,263,0.0,16.0,84,0.00,,,0.00,Wunderground v.1.15,2013-06-28 13:00:00,
2013-06-28 09:05:00,76.2,71.4,29.57,West,263,0.0,16.0,85,0.00,,,0.00,Wunderground v.1.15,2013-06-28 13:05:00,
2013-06-28 09:10:00,76.0,71.2,29.57,West,263,0.0,16.0,85,0.00,,,0.00,Wunderground v.1.15,2013-06-28 13:10:00,
2013-06-28 09:20:00,76.9,71.3,29.56,West,263,0.0,16.0,83,0.00,,,0.00,Wunderground v.1.15,2013-06-28 13:20:00,
2013-06-28 09:25:00,77.2,73.0,29.56,West,263,0.0,16.0,87,0.00,,,0.00,Wunderground v.1.15,2013-06-28 13:25:00,
2013-06-28 09:30:00,77.8,71.9,29.55,West,263,0.0,16.0,82,0.00,,,0.00,Wunderground v.1.15,2013-06-28 13:30:00,
2013-06-28 09:35:00,78.1,72.9,29.55,West,263,0.0,16.0,84,0.00,,,0.00,Wunderground v.1.15,2013-06-28 13:35:00,
2013-06-28 09:40:00,78.7,73.8,29.55,West,263,0.0,16.0,85,0.00,,,0.00,Wunderground v.1.15,2013-06-28 13:40:00,
2013-06-28 09:50:00,78.9,73.7,29.56,West,263,1.0,1.0,84,0.00,,,0.00,Wunderground v.1.15,2013-06-28 13:50:00,
2013-06-28 09:55:00,78.7,72.7,29.55,West,263,0.0,16.0,82,0.00,,,0.00,Wunderground v.1.15,2013-06-28 13:55:00,
2013-06-28 10:05:00,79.6,73.3,29.54,West,263,1.0,16.0,81,0.00,,,0.00,Wunderground v.1.15,2013-06-28 14:05:00,
2013-06-28 10:10:00,80.4,74.4,29.55,West,263,1.0,16.0,82,0.00,,,0.00,Wunderground v.1.15,2013-06-28 14:10:00,
2013-06-28 10:15:00,80.8,73.7,29.55,West,267,1.0,16.0,79,0.00,,,0.00,Wunderground v.1.15,2013-06-28 14:15:00,
2013-06-28 10:20:00,80.5,73.0,29.55,West,275,1.0,16.0,78,0.00,,,0.00,Wunderground v.1.15,2013-06-28 14:20:00,
2013-06-28 10:30:00,80.4,73.3,29.55,West,274,1.0,1.0,79,0.00,,,0.00,Wunderground v.1.15,2013-06-28 14:30:00,
2013-06-28 10:35:00,81.0,74.2,29.55,West,280,2.0,2.0,80,0.00,,,0.00,Wunderground v.1.15,2013-06-28 14:35:00,
2013-06-28 10:40:00,81.5,74.0,29.54,West,281,2.0,2.0,78,0.00,,,0.00,Wunderground v.1.15,2013-06-28 14:40:00,
2013-06-28 10:45:00,82.0,74.5,29.37,West,280,1.0,16.0,78,0.00,,,0.00,Wunderground v.1.15,2013-06-28 14:45:00,
2013-06-28 10:50:00,82.5,75.7,29.53,West,280,1.0,1.0,80,0.00,,,0.00,Wunderground v.1.15,2013-06-28 14:50:00,
2013-06-28 11:00:00,84.2,75.8,29.53,West,281,2.0,2.0,76,0.00,,,0.00,Wunderground v.1.15,2013-06-28 15:00:00,
2013-06-28 11:05:00,84.3,75.1,29.53,West,281,1.0,3.0,74,0.00,,,0.00,Wunderground v.1.15,2013-06-28 15:05:00,
2013-06-28 11:10:00,83.5,75.1,29.53,West,281,1.0,1.0,76,0.00,,,0.00,Wunderground v.1.15,2013-06-28 15:10:00,
2013-06-28 11:20:00,82.2,73.5,29.53,WSW,257,1.0,16.0,75,0.00,,,0.00,Wunderground v.1.15,2013-06-28 15:20:00,
2013-06-28 11:25:00,81.6,74.1,29.54,WSW,257,1.0,16.0,78,0.00,,,0.00,Wunderground v.1.15,2013-06-28 15:25:00,
2013-06-28 11:35:00,81.1,74.3,29.53,WSW,257,1.0,16.0,80,0.00,,,0.00,Wunderground v.1.15,2013-06-28 15:35:00,
2013-06-28 11:40:00,81.4,75.0,29.53,WSW,257,1.0,1.0,81,0.00,,,0.00,Wunderground v.1.15,2013-06-28 15:40:00,
2013-06-28 11:45:00,82.2,76.2,29.53,WSW,257,1.0,16.0,82,0.00,,,0.00,Wunderground v.1.15,2013-06-28 15:45:00,
2013-06-28 11:50:00,83.0,75.0,29.53,WSW,257,0.0,16.0,77,0.00,,,0.00,Wunderground v.1.15,2013-06-28 15:50:00,
2013-06-28 11:55:00,82.6,73.9,29.53,WSW,254,1.0,16.0,75,0.00,,,0.00,Wunderground v.1.15,2013-06-28 15:55:00,
2013-06-28 12:00:00,82.0,73.7,29.53,WSW,246,2.0,2.0,76,0.00,,,0.00,Wunderground v.1.15,2013-06-28 16:00:00,
2013-06-28 12:10:00,82.3,73.6,29.52,SW,234,3.0,16.0,75,0.00,,,0.00,Wunderground v.1.15,2013-06-28 16:10:00,
2013-06-28 12:20:00,83.1,74.7,29.53,SW,229,2.0,16.0,76,0.00,,,0.00,Wunderground v.1.15,2013-06-28 16:20:00,
2013-06-28 12:25:00,83.5,74.3,29.52,SW,225,3.0,16.0,74,0.00,,,0.00,Wunderground v.1.15,2013-06-28 16:25:00,
2013-06-28 12:30:00,83.7,75.3,29.52,SW,220,3.0,3.0,76,0.00,,,0.00,Wunderground v.1.15,2013-06-28 16:30:00,
2013-06-28 12:35:00,83.6,74.0,29.52,SSW,205,4.0,5.0,73,0.00,,,0.00,Wunderground v.1.15,2013-06-28 16:35:00,
2013-06-28 12:45:00,81.6,74.1,29.52,SSW,209,4.0,16.0,78,0.00,,,0.00,Wunderground v.1.15,2013-06-28 16:45:00,
2013-06-28 12:50:00,82.5,76.1,29.52,SSW,210,3.0,16.0,81,0.00,,,0.00,Wunderground v.1.15,2013-06-28 16:50:00,
2013-06-28 12:55:00,82.8,74.8,29.52,SW,216,2.0,16.0,77,0.00,,,0.00,Wunderground v.1.15,2013-06-28 16:55:00,
2013-06-28 13:00:00,82.3,73.2,29.52,SW,215,3.0,3.0,74,0.00,,,0.00,Wunderground v.1.15,2013-06-28 17:00:00,
2013-06-28 13:05:00,82.3,74.0,29.52,SSW,210,3.0,6.0,76,0.00,,,0.00,Wunderground v.1.15,2013-06-28 17:05:00,
2013-06-28 13:10:00,83.2,75.2,29.52,SSW,211,3.0,16.0,77,0.00,,,0.00,Wunderground v.1.15,2013-06-28 17:10:00,
2013-06-28 13:15:00,83.8,74.6,29.52,SSW,200,3.0,16.0,74,0.00,,,0.00,Wunderground v.1.15,2013-06-28 17:15:00,
2013-06-28 13:20:00,83.9,75.1,29.52,SSW,201,3.0,16.0,75,0.00,,,0.00,Wunderground v.1.15,2013-06-28 17:20:00,
2013-06-28 13:30:00,83.6,73.2,29.51,SW,219,3.0,16.0,71,0.00,,,0.00,Wunderground v.1.15,2013-06-28 17:30:00,
2013-06-28 13:35:00,83.4,74.2,29.51,SW,223,3.0,16.0,74,0.00,,,0.00,Wunderground v.1.15,2013-06-28 17:35:00,
2013-06-28 13:40:00,83.9,74.7,29.51,SW,217,4.0,4.0,74,0.00,,,0.00,Wunderground v.1.15,2013-06-28 17:40:00,
2013-06-28 13:45:00,84.5,74.5,29.50,SW,216,3.0,16.0,72,0.00,,,0.00,Wunderground v.1.15,2013-06-28 17:45:00,
2013-06-28 13:49:00,84.2,73.8,29.50,South,183,3.0,16.0,71,0.00,,,0.00,Wunderground v.1.15,2013-06-28 17:49:00,
2013-06-28 13:55:00,83.3,73.7,29.50,South,184,3.0,16.0,73,0.00,,,0.00,Wunderground v.1.15,2013-06-28 17:55:00,
2013-06-28 14:00:00,83.0,74.6,29.50,South,184,2.0,16.0,76,0.00,,,0.00,Wunderground v.1.15,2013-06-28 18:00:00,
2013-06-28 14:05:00,83.2,74.4,29.49,South,178,3.0,16.0,75,0.00,,,0.00,Wunderground v.1.15,2013-06-28 18:05:00,
2013-06-28 14:10:00,83.6,73.6,29.49,South,178,4.0,16.0,72,0.00,,,0.00,Wunderground v.1.15,2013-06-28 18:10:00,
2013-06-28 14:15:00,83.4,73.8,29.49,South,188,4.0,16.0,73,0.00,,,0.00,Wunderground v.1.15,2013-06-28 18:15:00,
2013-06-28 14:25:00,83.9,74.7,29.48,SSW,205,4.0,16.0,74,0.00,,,0.00,Wunderground v.1.15,2013-06-28 18:25:00,
2013-06-28 14:30:00,84.4,74.8,29.48,SSW,210,4.0,16.0,73,0.00,,,0.00,Wunderground v.1.15,2013-06-28 18:30:00,
2013-06-28 14:35:00,84.5,73.2,29.48,SSW,211,4.0,16.0,69,0.00,,,0.00,Wunderground v.1.15,2013-06-28 18:35:00,
2013-06-28 14:40:00,84.3,73.0,29.47,SSW,198,4.0,16.0,69,0.00,,,0.00,Wunderground v.1.15,2013-06-28 18:40:00,
2013-06-28 14:45:00,83.8,72.5,29.47,SSW,201,3.0,16.0,69,0.00,,,0.00,Wunderground v.1.15,2013-06-28 18:45:00,
2013-06-28 14:50:00,84.0,74.4,29.47,SSW,209,3.0,3.0,73,0.00,,,0.00,Wunderground v.1.15,2013-06-28 18:50:00,
2013-06-28 14:55:00,84.4,73.1,29.46,SSW,211,3.0,16.0,69,0.00,,,0.00,Wunderground v.1.15,2013-06-28 18:55:00,
2013-06-28 15:00:00,84.5,73.2,29.46,WSW,252,2.0,16.0,69,0.00,,,0.00,Wunderground v.1.15,2013-06-28 19:00:00,
2013-06-28 15:10:00,85.2,75.6,29.46,WSW,254,1.0,16.0,73,0.00,,,0.00,Wunderground v.1.15,2013-06-28 19:10:00,
2013-06-28 15:15:00,85.8,74.9,29.46,WSW,253,1.0,16.0,70,0.00,,,0.00,Wunderground v.1.15,2013-06-28 19:15:00,
2013-06-28 15:20:00,86.0,75.5,29.46,WSW,258,2.0,16.0,71,0.00,,,0.00,Wunderground v.1.15,2013-06-28 19:20:00,
2013-06-28 15:30:00,86.0,73.3,29.46,SW,221,4.0,4.0,66,0.00,,,0.00,Wunderground v.1.15,2013-06-28 19:30:00,
2013-06-28 15:35:00,86.2,74.8,29.46,SW,221,3.0,16.0,69,0.00,,,0.00,Wunderground v.1.15,2013-06-28 19:35:00,
2013-06-28 15:40:00,86.1,73.9,29.45,SW,225,1.0,1.0,67,0.00,,,0.00,Wunderground v.1.15,2013-06-28 19:40:00,
2013-06-28 15:45:00,85.5,74.2,29.46,SW,223,1.0,16.0,69,0.00,,,0.00,Wunderground v.1.15,2013-06-28 19:45:00,
2013-06-28 15:50:00,84.8,74.3,29.46,SW,223,1.0,16.0,71,0.00,,,0.00,Wunderground v.1.15,2013-06-28 19:50:00,
2013-06-28 16:00:00,83.0,75.8,29.46,South,188,3.0,16.0,79,0.00,,,0.00,Wunderground v.1.15,2013-06-28 20:00:00,
2013-06-28 16:10:00,81.8,75.0,29.46,South,173,3.0,16.0,80,0.00,,,0.00,Wunderground v.1.15,2013-06-28 20:10:00,
2013-06-28 16:15:00,81.6,74.5,29.47,SSE,167,3.0,16.0,79,0.00,,,0.00,Wunderground v.1.15,2013-06-28 20:15:00,
2013-06-28 16:20:00,81.6,74.8,29.47,South,169,4.0,16.0,80,0.00,,,0.00,Wunderground v.1.15,2013-06-28 20:20:00,
2013-06-28 16:25:00,81.3,74.2,29.47,SSW,195,5.0,16.0,79,0.00,,,0.00,Wunderground v.1.15,2013-06-28 20:25:00,
2013-06-28 16:30:00,81.2,74.1,29.47,South,182,5.0,5.0,79,0.00,,,0.00,Wunderground v.1.15,2013-06-28 20:30:00,
2013-06-28 16:40:00,80.7,74.0,29.48,South,190,4.0,16.0,80,0.00,,,0.00,Wunderground v.1.15,2013-06-28 20:40:00,
2013-06-28 16:50:00,80.1,74.1,29.48,SSW,197,3.0,3.0,82,0.00,,,0.00,Wunderground v.1.15,2013-06-28 20:50:00,
2013-06-28 16:55:00,79.7,73.7,29.47,SSW,192,3.0,16.0,82,0.00,,,0.00,Wunderground v.1.15,2013-06-28 20:55:00,
2013-06-28 17:00:00,79.4,74.1,29.47,SSW,192,3.0,3.0,84,0.00,,,0.00,Wunderground v.1.15,2013-06-28 21:00:00,
2013-06-28 17:05:00,79.4,74.1,29.47,SSW,192,2.0,16.0,84,0.00,,,0.00,Wunderground v.1.15,2013-06-28 21:05:00,
2013-06-28 17:10:00,79.6,74.3,29.47,SSW,192,1.0,1.0,84,0.00,,,0.00,Wunderground v.1.15,2013-06-28 21:10:00,
2013-06-28 17:15:00,79.7,74.4,29.47,SSW,192,0.0,16.0,84,0.00,,,0.00,Wunderground v.1.15,2013-06-28 21:15:00,
2013-06-28 17:20:00,79.7,74.4,29.47,SSW,192,1.0,1.0,84,0.00,,,0.00,Wunderground v.1.15,2013-06-28 21:20:00,
2013-06-28 17:25:00,79.8,74.5,29.47,SSW,192,0.0,16.0,84,0.00,,,0.00,Wunderground v.1.15,2013-06-28 21:25:00,
2013-06-28 17:30:00,79.8,73.4,29.49,WNW,291,2.0,16.0,81,0.00,,,0.00,Wunderground v.1.15,2013-06-28 21:30:00,
2013-06-28 17:35:00,79.9,73.2,29.49,NW,317,3.0,16.0,80,0.00,,,0.00,Wunderground v.1.15,2013-06-28 21:35:00,
2013-06-28 17:40:00,79.6,71.8,29.48,WNW,301,2.0,16.0,77,0.00,,,0.00,Wunderground v.1.15,2013-06-28 21:40:00,
2013-06-28 17:45:00,79.5,71.7,29.48,NW,306,2.0,16.0,77,0.00,,,0.00,Wunderground v.1.15,2013-06-28 21:45:00,
2013-06-28 17:50:00,79.5,71.3,29.48,NW,306,1.0,1.0,76,0.00,,,0.00,Wunderground v.1.15,2013-06-28 21:50:00,
2013-06-28 17:55:00,79.3,71.1,29.48,NW,305,1.0,16.0,76,0.00,,,0.00,Wunderground v.1.15,2013-06-28 21:55:00,
2013-06-28 18:00:00,79.1,70.5,29.48,WNW,302,1.0,1.0,75,0.00,,,0.00,Wunderground v.1.15,2013-06-28 22:00:00,
2013-06-28 18:05:00,78.6,70.4,29.48,WNW,302,1.0,16.0,76,0.00,,,0.00,Wunderground v.1.15,2013-06-28 22:05:00,
2013-06-28 18:15:00,77.5,69.7,29.48,WNW,302,0.0,16.0,77,0.00,,,0.00,Wunderground v.1.15,2013-06-28 22:15:00,
2013-06-28 18:25:00,76.8,69.4,29.47,WNW,302,0.0,16.0,78,0.00,,,0.00,Wunderground v.1.15,2013-06-28 22:25:00,
2013-06-28 18:30:00,76.4,68.3,29.47,WNW,302,0.0,16.0,76,0.00,,,0.00,Wunderground v.1.15,2013-06-28 22:30:00,
2013-06-28 18:35:00,76.1,68.7,29.47,WNW,302,0.0,16.0,78,0.00,,,0.00,Wunderground v.1.15,2013-06-28 22:35:00,
2013-06-28 18:40:00,75.6,68.6,29.47,WNW,302,0.0,16.0,79,0.00,,,0.00,Wunderground v.1.15,2013-06-28 22:40:00,
2013-06-28 18:45:00,75.3,68.3,29.47,WNW,302,0.0,16.0,79,0.00,,,0.00,Wunderground v.1.15,2013-06-28 22:45:00,
2013-06-28 18:50:00,75.1,68.5,29.48,WNW,302,0.0,16.0,80,0.00,,,0.00,Wunderground v.1.15,2013-06-28 22:50:00,
2013-06-28 18:55:00,74.7,68.5,29.49,WNW,302,0.0,16.0,81,0.00,,,0.00,Wunderground v.1.15,2013-06-28 22:55:00,
2013-06-28 19:00:00,74.5,68.6,29.49,WNW,302,0.0,16.0,82,0.00,,,0.00,Wunderground v.1.15,2013-06-28 23:00:00,
2013-06-28 19:05:00,74.3,69.1,29.49,WNW,302,0.0,16.0,84,0.00,,,0.00,Wunderground v.1.15,2013-06-28 23:05:00,
2013-06-28 19:10:00,73.9,67.0,29.49,WNW,302,0.0,16.0,79,0.00,,,0.00,Wunderground v.1.15,2013-06-28 23:10:00,
2013-06-28 19:15:00,73.7,67.5,29.49,WNW,302,0.0,16.0,81,0.00,,,0.00,Wunderground v.1.15,2013-06-28 23:15:00,
2013-06-28 19:20:00,73.7,67.9,29.49,WNW,302,0.0,16.0,82,0.00,,,0.00,Wunderground v.1.15,2013-06-28 23:20:00,
2013-06-28 19:25:00,73.6,67.8,29.50,WNW,302,0.0,16.0,82,0.00,,,0.00,Wunderground v.1.15,2013-06-28 23:25:00,
2013-06-28 19:30:00,73.4,67.2,29.50,WNW,302,0.0,16.0,81,0.00,,,0.00,Wunderground v.1.15,2013-06-28 23:30:00,
2013-06-28 19:40:00,73.3,67.1,29.52,WNW,302,0.0,16.0,81,0.00,,,0.00,Wunderground v.1.15,2013-06-28 23:40:00,
2013-06-28 19:45:00,73.3,67.1,29.52,WNW,302,0.0,16.0,81,0.00,,,0.00,Wunderground v.1.15,2013-06-28 23:45:00,
2013-06-28 19:50:00,73.3,67.1,29.52,WNW,302,0.0,16.0,81,0.00,,,0.00,Wunderground v.1.15,2013-06-28 23:50:00,
2013-06-28 19:55:00,73.4,67.9,29.52,WNW,302,0.0,16.0,83,0.00,,,0.00,Wunderground v.1.15,2013-06-28 23:55:00,
2013-06-28 20:00:00,73.2,67.7,29.52,WNW,302,0.0,16.0,83,0.00,,,0.00,Wunderground v.1.15,2013-06-29 00:00:00,
2013-06-28 20:05:00,73.0,67.5,29.52,WNW,302,0.0,16.0,83,0.00,,,0.00,Wunderground v.1.15,2013-06-29 00:05:00,
2013-06-28 20:10:00,72.8,67.7,29.52,WNW,302,0.0,16.0,84,0.00,,,0.00,Wunderground v.1.15,2013-06-29 00:10:00,
2013-06-28 20:15:00,72.6,67.1,29.53,WNW,302,0.0,16.0,83,0.00,,,0.00,Wunderground v.1.15,2013-06-29 00:15:00,
2013-06-28 20:20:00,72.4,66.9,29.52,WNW,302,0.0,16.0,83,0.00,,,0.00,Wunderground v.1.15,2013-06-29 00:20:00,
2013-06-28 20:25:00,72.1,67.0,29.52,WNW,302,0.0,16.0,84,0.00,,,0.00,Wunderground v.1.15,2013-06-29 00:25:00,
2013-06-28 20:35:00,71.1,66.0,29.51,WNW,302,0.0,16.0,84,0.00,,,0.00,Wunderground v.1.15,2013-06-29 00:35:00,
2013-06-28 20:40:00,70.6,65.9,29.51,WNW,302,0.0,16.0,85,0.00,,,0.00,Wunderground v.1.15,2013-06-29 00:40:00,
2013-06-28 20:45:00,70.2,65.8,29.52,WNW,302,0.0,16.0,86,0.00,,,0.00,Wunderground v.1.15,2013-06-29 00:45:00,
2013-06-28 20:55:00,69.7,66.0,29.52,WNW,302,0.0,16.0,88,0.00,,,0.00,Wunderground v.1.15,2013-06-29 00:55:00,
2013-06-28 21:00:00,69.4,65.7,29.52,WNW,302,0.0,16.0,88,0.00,,,0.00,Wunderground v.1.15,2013-06-29 01:00:00,
2013-06-28 21:10:00,69.4,65.4,29.52,WNW,303,0.0,16.0,87,0.00,,,0.00,Wunderground v.1.15,2013-06-29 01:10:00,
2013-06-28 21:15:00,69.6,65.9,29.51,WNW,303,0.0,16.0,88,0.00,,,0.00,Wunderground v.1.15,2013-06-29 01:15:00,
2013-06-28 21:20:00,69.7,65.7,29.52,WNW,303,0.0,16.0,87,0.00,,,0.00,Wunderground v.1.15,2013-06-29 01:20:00,
2013-06-28 21:25:00,69.7,65.3,29.52,WNW,303,0.0,16.0,86,0.00,,,0.00,Wunderground v.1.15,2013-06-29 01:25:00,
2013-06-28 21:30:00,69.8,65.1,29.52,WNW,303,0.0,16.0,85,0.00,,,0.00,Wunderground v.1.15,2013-06-29 01:30:00,
2013-06-28 21:40:00,69.7,65.3,29.52,WNW,303,0.0,16.0,86,0.00,,,0.00,Wunderground v.1.15,2013-06-29 01:40:00,
2013-06-28 21:45:00,69.6,65.2,29.53,WNW,303,0.0,16.0,86,0.00,,,0.00,Wunderground v.1.15,2013-06-29 01:45:00,
2013-06-28 21:55:00,69.6,65.9,29.52,WNW,303,0.0,16.0,88,0.00,,,0.00,Wunderground v.1.15,2013-06-29 01:55:00,
2013-06-28 22:00:00,69.7,66.0,29.52,WNW,303,0.0,16.0,88,0.00,,,0.00,Wunderground v.1.15,2013-06-29 02:00:00,
2013-06-28 22:05:00,69.6,65.6,29.52,WNW,303,0.0,16.0,87,0.00,,,0.00,Wunderground v.1.15,2013-06-29 02:05:00,
2013-06-28 22:15:00,69.5,65.8,29.53,WNW,303,0.0,16.0,88,0.00,,,0.00,Wunderground v.1.15,2013-06-29 02:15:00,
2013-06-28 22:20:00,69.5,66.1,29.52,WNW,303,0.0,16.0,89,0.00,,,0.00,Wunderground v.1.15,2013-06-29 02:20:00,
2013-06-28 22:25:00,69.4,65.7,29.52,WNW,303,0.0,16.0,88,0.00,,,0.00,Wunderground v.1.15,2013-06-29 02:25:00,
2013-06-28 22:30:00,69.3,65.9,29.52,WNW,303,0.0,16.0,89,0.00,,,0.00,Wunderground v.1.15,2013-06-29 02:30:00,
2013-06-28 22:35:00,69.2,65.5,29.53,WNW,303,0.0,16.0,88,0.00,,,0.00,Wunderground v.1.15,2013-06-29 02:35:00,
2013-06-28 22:40:00,69.2,66.1,29.53,WNW,303,0.0,16.0,90,0.00,,,0.00,Wunderground v.1.15,2013-06-29 02:40:00,
2013-06-28 22:50:00,69.1,66.0,29.53,WNW,303,0.0,16.0,90,0.00,,,0.00,Wunderground v.1.15,2013-06-29 02:50:00,
2013-06-28 22:55:00,69.0,65.9,29.54,WNW,303,0.0,16.0,90,0.00,,,0.00,Wunderground v.1.15,2013-06-29 02:55:00,
2013-06-28 23:00:00,68.9,65.8,29.53,WNW,303,0.0,16.0,90,0.00,,,0.00,Wunderground v.1.15,2013-06-29 03:00:00,
2013-06-28 23:05:00,68.9,65.8,29.53,WNW,303,0.0,16.0,90,0.00,,,0.00,Wunderground v.1.15,2013-06-29 03:05:00,
2013-06-28 23:10:00,68.8,65.4,29.53,WNW,303,0.0,16.0,89,0.00,,,0.00,Wunderground v.1.15,2013-06-29 03:10:00,
2013-06-28 23:20:00,68.8,65.7,29.53,WNW,303,0.0,16.0,90,0.00,,,0.00,Wunderground v.1.15,2013-06-29 03:20:00,
2013-06-28 23:25:00,68.8,65.7,29.54,WNW,303,0.0,16.0,90,0.00,,,0.00,Wunderground v.1.15,2013-06-29 03:25:00,
2013-06-28 23:30:00,68.8,65.7,29.54,WNW,303,0.0,16.0,90,0.00,,,0.00,Wunderground v.1.15,2013-06-29 03:30:00,
2013-06-28 23:35:00,68.8,65.7,29.53,WNW,303,0.0,16.0,90,0.00,,,0.00,Wunderground v.1.15,2013-06-29 03:35:00,
2013-06-28 23:40:00,68.8,65.7,29.53,WNW,303,0.0,16.0,90,0.00,,,0.00,Wunderground v.1.15,2013-06-29 03:40:00,
2013-06-28 23:45:00,68.7,66.0,29.53,WNW,303,0.0,16.0,91,0.00,,,0.00,Wunderground v.1.15,2013-06-29 03:45:00,
2013-06-28 23:50:00,68.5,65.8,29.53,WNW,303,0.0,16.0,91,0.00,,,0.00,Wunderground v.1.15,2013-06-29 03:50:00,
2013-06-28 23:55:00,68.4,65.7,29.53,WNW,303,0.0,16.0,91,0.00,,,0.00,Wunderground v.1.15,2013-06-29 03:55:00,